createdAt,value
2023-03-18T00:02:20.515Z,49.68
2023-03-18T00:04:51.378Z,49.66
2023-03-18T00:07:20.880Z,50.28
2023-03-18T00:09:50.845Z,50.23
2023-03-18T00:12:20.286Z,50.36
2023-03-18T00:14:49.886Z,50.49
2023-03-18T00:17:19.249Z,50.19
2023-03-18T00:19:48.791Z,49.94
2023-03-18T00:22:18.971Z,50.09
2023-03-18T00:24:49.218Z,49.85
2023-03-18T00:27:19.289Z,49.62
2023-03-18T00:29:49.859Z,49.27
2023-03-18T00:32:19.974Z,49.10
2023-03-18T00:34:50.936Z,48.98
2023-03-18T00:37:30.670Z,48.97
2023-03-18T00:40:08.109Z,48.86
2023-03-18T00:42:47.534Z,48.64
2023-03-18T00:45:17.992Z,48.66
2023-03-18T00:47:48.740Z,48.74
2023-03-18T00:50:18.331Z,48.80
2023-03-18T00:52:48.124Z,48.66
2023-03-18T00:55:17.712Z,48.94
2023-03-18T00:57:47.401Z,49.38
2023-03-18T01:00:17.923Z,49.18
2023-03-18T01:02:51.573Z,49.44
2023-03-18T01:05:21.253Z,49.33
2023-03-18T01:07:50.734Z,49.52
2023-03-18T01:10:20.823Z,49.51
2023-03-18T01:12:51.437Z,49.90
2023-03-18T01:15:22.047Z,50.07
2023-03-18T01:17:52.641Z,49.73
2023-03-18T01:20:24.600Z,49.55
2023-03-18T01:22:57.232Z,49.95
2023-03-18T01:25:27.681Z,49.79
2023-03-18T01:27:57.292Z,50.23
2023-03-18T01:30:28.677Z,49.90
2023-03-18T01:32:59.064Z,50.33
2023-03-18T01:35:29.022Z,50.21
2023-03-18T01:40:31.277Z,49.92
2023-03-18T01:43:28.307Z,50.02
2023-03-18T01:46:00.990Z,49.77
2023-03-18T01:48:38.698Z,49.65
2023-03-18T01:51:11.921Z,49.53
2023-03-18T01:53:47.907Z,49.74
2023-03-18T01:56:20.791Z,49.87
2023-03-18T01:58:55.227Z,50.33
2023-03-18T02:01:40.692Z,50.14
2023-03-18T02:04:11.681Z,50.36
2023-03-18T02:06:43.941Z,50.21
2023-03-18T02:09:14.049Z,50.42
2023-03-18T02:11:50.187Z,50.45
2023-03-18T02:14:25.770Z,50.71
2023-03-18T02:17:10.652Z,50.57
2023-03-18T02:20:12.766Z,50.96
2023-03-18T02:23:08.129Z,50.87
2023-03-18T02:26:07.021Z,50.79
2023-03-18T02:28:38.851Z,50.85
2023-03-18T02:31:13.376Z,50.93
2023-03-18T02:33:44.852Z,51.05
2023-03-18T02:36:29.112Z,51.23
2023-03-18T02:39:00.550Z,51.22
2023-03-18T02:41:35.968Z,51.29
2023-03-18T02:44:06.626Z,51.26
2023-03-18T02:47:04.386Z,51.08
2023-03-18T02:49:33.908Z,51.28
2023-03-18T02:52:04.219Z,51.22
2023-03-18T02:54:34.204Z,51.15
2023-03-18T02:57:03.825Z,51.35
2023-03-18T02:59:33.539Z,51.13
2023-03-18T03:02:03.069Z,51.35
2023-03-18T03:04:33.161Z,51.32
2023-03-18T03:07:02.727Z,51.48
2023-03-18T03:09:45.974Z,51.56
2023-03-18T03:12:19.344Z,51.61
2023-03-18T03:14:53.008Z,52.03
2023-03-18T03:17:22.940Z,51.90
2023-03-18T03:19:52.988Z,52.03
2023-03-18T03:22:22.435Z,52.13
2023-03-18T03:24:51.854Z,52.26
2023-03-18T03:27:21.330Z,52.45
2023-03-18T03:29:50.690Z,52.81
2023-03-18T03:32:24.005Z,52.77
2023-03-18T03:34:53.555Z,52.52
2023-03-18T03:37:23.042Z,52.57
2023-03-18T03:39:52.436Z,52.83
2023-03-18T03:42:22.714Z,52.88
2023-03-18T03:44:52.708Z,52.59
2023-03-18T03:47:22.144Z,52.80
2023-03-18T03:49:52.607Z,53.03
2023-03-18T03:52:22.149Z,53.43
2023-03-18T03:54:52.452Z,53.15
2023-03-18T03:57:24.324Z,53.18
2023-03-18T03:59:54.410Z,53.40
2023-03-18T04:02:45.789Z,53.64
2023-03-18T04:05:19.586Z,53.53
2023-03-18T04:07:49.529Z,53.59
2023-03-18T04:10:21.619Z,53.83
2023-03-18T04:12:51.176Z,53.69
2023-03-18T04:15:23.040Z,53.18
2023-03-18T04:17:55.117Z,53.69
2023-03-18T04:20:24.832Z,53.52
2023-03-18T04:22:54.828Z,53.93
2023-03-18T04:25:25.040Z,53.95
2023-03-18T04:27:55.151Z,53.94
2023-03-18T04:30:26.821Z,53.81
2023-03-18T04:33:10.474Z,54.01
2023-03-18T04:35:43.795Z,53.73
2023-03-18T04:38:14.492Z,53.90
2023-03-18T04:40:45.256Z,53.88
2023-03-18T04:43:15.616Z,53.88
2023-03-18T04:45:45.161Z,53.73
2023-03-18T04:48:14.801Z,53.53
2023-03-18T04:50:45.594Z,53.86
2023-03-18T04:53:18.870Z,53.94
2023-03-18T04:55:51.080Z,54.05
2023-03-18T04:58:21.286Z,53.86
2023-03-18T05:01:02.366Z,53.74
2023-03-18T05:03:37.063Z,53.54
2023-03-18T05:06:09.548Z,53.60
2023-03-18T05:08:50.242Z,53.67
2023-03-18T05:11:21.248Z,53.23
2023-03-18T05:13:52.348Z,53.22
2023-03-18T05:16:24.942Z,53.25
2023-03-18T05:18:54.873Z,52.76
2023-03-18T05:21:24.554Z,52.63
2023-03-18T05:23:54.123Z,52.81
2023-03-18T05:26:23.748Z,52.58
2023-03-18T05:28:54.006Z,52.66
2023-03-18T05:31:32.838Z,52.65
2023-03-18T05:34:03.353Z,52.25
2023-03-18T05:36:36.928Z,52.42
2023-03-18T05:39:09.138Z,51.76
2023-03-18T05:41:38.894Z,51.63
2023-03-18T05:44:10.474Z,50.64
2023-03-18T05:46:42.582Z,50.53
2023-03-18T05:49:35.663Z,49.72
2023-03-18T05:52:19.696Z,49.31
2023-03-18T05:54:51.103Z,48.38
2023-03-18T05:57:25.408Z,47.98
2023-03-18T06:00:00.251Z,47.74
2023-03-18T06:02:30.132Z,47.84
2023-03-18T06:05:00.309Z,47.62
2023-03-18T06:07:30.721Z,47.60
2023-03-18T06:10:00.464Z,47.49
2023-03-18T06:12:30.085Z,47.48
2023-03-18T06:15:00.799Z,47.00
2023-03-18T06:17:30.589Z,46.79
2023-03-18T06:20:00.395Z,46.62
2023-03-18T06:22:31.869Z,45.76
2023-03-18T06:25:02.911Z,45.56
2023-03-18T06:27:33.676Z,45.37
2023-03-18T06:30:06.101Z,44.34
2023-03-18T06:32:37.327Z,44.22
2023-03-18T06:35:07.974Z,43.72
2023-03-18T06:37:40.300Z,43.18
2023-03-18T06:40:12.539Z,43.36
2023-03-18T06:42:42.355Z,43.27
2023-03-18T06:45:25.757Z,42.78
2023-03-18T06:48:01.222Z,42.94
2023-03-18T06:50:32.408Z,42.93
2023-03-18T06:53:03.088Z,42.35
2023-03-18T06:55:35.198Z,42.50
2023-03-18T06:58:06.552Z,42.17
2023-03-18T07:00:48.045Z,42.02
2023-03-18T07:03:26.400Z,41.60
2023-03-18T07:05:56.410Z,41.79
2023-03-18T07:08:27.259Z,41.51
2023-03-18T07:10:57.860Z,41.57
2023-03-18T07:13:28.985Z,41.47
2023-03-18T07:16:00.600Z,41.63
2023-03-18T07:18:30.714Z,41.78
2023-03-18T07:21:00.938Z,41.78
2023-03-18T07:23:30.457Z,42.15
2023-03-18T07:26:00.282Z,42.02
2023-03-18T07:28:29.761Z,41.87
2023-03-18T07:30:59.116Z,41.66
2023-03-18T07:33:28.997Z,41.92
2023-03-18T07:35:58.431Z,42.42
2023-03-18T07:38:28.092Z,42.21
2023-03-18T07:40:58.165Z,42.18
2023-03-18T07:43:28.954Z,41.82
2023-03-18T07:45:59.060Z,42.00
2023-03-18T07:48:28.518Z,41.97
2023-03-18T07:50:59.622Z,42.62
2023-03-18T07:53:29.387Z,42.23
2023-03-18T07:56:05.967Z,40.65
2023-03-18T07:58:36.060Z,40.25
2023-03-18T08:01:06.718Z,40.57
2023-03-18T08:03:40.089Z,40.30
2023-03-18T08:06:09.861Z,40.74
2023-03-18T08:08:40.825Z,40.85
2023-03-18T08:11:11.257Z,41.58
2023-03-18T08:13:40.733Z,41.80
2023-03-18T08:16:10.480Z,42.48
2023-03-18T08:18:40.155Z,42.81
2023-03-18T08:21:09.776Z,42.68
2023-03-18T08:23:40.219Z,42.65
2023-03-18T08:26:09.853Z,42.16
2023-03-18T08:28:39.869Z,41.43
2023-03-18T08:31:09.906Z,41.34
2023-03-18T08:33:39.358Z,41.01
2023-03-18T08:36:09.022Z,41.05
2023-03-18T08:38:38.420Z,40.47
2023-03-18T08:41:10.733Z,40.38
2023-03-18T08:43:40.181Z,40.41
2023-03-18T08:46:09.822Z,40.60
2023-03-18T08:48:39.352Z,40.76
2023-03-18T08:51:09.483Z,40.96
2023-03-18T08:53:38.959Z,41.08
2023-03-18T08:56:08.684Z,41.44
2023-03-18T08:58:38.137Z,41.68
2023-03-18T09:01:10.771Z,42.16
2023-03-18T09:03:41.471Z,42.91
2023-03-18T09:06:11.133Z,43.59
2023-03-18T09:08:44.018Z,44.29
2023-03-18T09:11:14.842Z,44.60
2023-03-18T09:13:44.797Z,44.77
2023-03-18T09:16:15.318Z,44.38
2023-03-18T09:18:47.645Z,44.72
2023-03-18T09:21:18.652Z,45.21
2023-03-18T09:23:49.473Z,44.82
2023-03-18T09:26:19.577Z,44.83
2023-03-18T09:28:49.163Z,44.48
2023-03-18T09:31:19.579Z,45.03
2023-03-18T09:33:49.172Z,45.68
2023-03-18T09:36:18.666Z,46.06
2023-03-18T09:38:48.149Z,46.50
2023-03-18T09:41:22.428Z,47.22
2023-03-18T09:44:16.109Z,47.81
2023-03-18T09:47:03.319Z,48.25
2023-03-18T09:50:38.298Z,48.46
2023-03-18T09:53:21.018Z,48.34
2023-03-18T09:56:01.172Z,48.05
2023-03-18T09:58:54.001Z,48.26
2023-03-18T10:01:28.687Z,48.46
2023-03-18T10:04:18.676Z,48.89
2023-03-18T10:06:51.637Z,49.50
2023-03-18T10:09:54.194Z,50.05
2023-03-18T10:12:39.439Z,50.01
2023-03-18T10:15:29.876Z,50.13
2023-03-18T10:18:13.842Z,50.79
2023-03-18T10:21:08.216Z,51.13
2023-03-18T10:24:09.772Z,51.59
2023-03-18T10:26:58.011Z,52.09
2023-03-18T10:29:52.442Z,53.48
2023-03-18T10:32:48.949Z,53.31
2023-03-18T10:35:53.523Z,54.35
2023-03-18T10:38:50.175Z,54.41
2023-03-18T10:41:29.996Z,54.29
2023-03-18T10:44:05.180Z,54.35
2023-03-18T10:46:37.910Z,54.08
2023-03-18T10:49:33.163Z,53.94
2023-03-18T10:52:11.128Z,53.66
2023-03-18T10:54:52.818Z,54.26
2023-03-18T10:57:23.512Z,54.11
2023-03-18T10:59:53.268Z,54.23
2023-03-18T11:02:34.660Z,54.16
2023-03-18T11:05:25.190Z,54.45
2023-03-18T11:08:03.923Z,54.84
2023-03-18T11:10:40.678Z,55.58
2023-03-18T11:13:22.397Z,56.37
2023-03-18T11:15:56.766Z,58.09
2023-03-18T11:18:27.862Z,59.26
2023-03-18T11:21:01.455Z,60.96
2023-03-18T11:23:56.750Z,63.28
2023-03-18T11:26:30.314Z,64.53
2023-03-18T11:29:10.763Z,65.02
2023-03-18T11:31:58.564Z,65.12
2023-03-18T11:34:35.667Z,65.04
2023-03-18T11:37:11.858Z,64.26
2023-03-18T11:39:41.870Z,63.87
2023-03-18T11:42:22.298Z,64.18
2023-03-18T11:44:57.235Z,63.04
2023-03-18T11:47:32.397Z,63.99
2023-03-18T11:50:05.047Z,63.62
2023-03-18T11:52:50.195Z,63.36
2023-03-18T11:56:19.230Z,63.92
2023-03-18T11:58:56.920Z,63.04
2023-03-18T12:01:57.998Z,62.30
2023-03-18T12:04:46.241Z,61.85
2023-03-18T12:07:41.813Z,61.62
2023-03-18T12:10:28.558Z,61.37
2023-03-18T12:13:48.684Z,61.05
2023-03-18T12:16:45.789Z,60.29
2023-03-18T12:19:37.010Z,60.19
2023-03-18T12:22:33.991Z,59.60
2023-03-18T12:25:35.586Z,58.45
2023-03-18T12:28:39.777Z,58.03
2023-03-18T12:32:00.686Z,58.28
2023-03-18T12:35:20.694Z,58.32
2023-03-18T12:38:18.487Z,58.47
2023-03-18T12:41:25.370Z,58.22
2023-03-18T12:44:17.829Z,58.31
2023-03-18T12:47:00.778Z,58.78
2023-03-18T12:49:41.684Z,59.51
2023-03-18T12:52:38.336Z,59.64
2023-03-18T12:55:19.425Z,60.05
2023-03-18T12:57:51.088Z,60.00
2023-03-18T13:00:29.849Z,60.30
2023-03-18T13:03:41.353Z,60.89
2023-03-18T13:06:46.020Z,61.22
2023-03-18T13:09:24.744Z,61.34
2023-03-18T13:12:36.221Z,61.60
2023-03-18T13:15:36.193Z,61.70
2023-03-18T13:18:28.099Z,62.12
2023-03-18T13:20:59.931Z,62.18
2023-03-18T13:23:56.618Z,62.27
2023-03-18T13:26:55.079Z,62.42
2023-03-18T13:29:51.720Z,62.40
2023-03-18T13:32:36.990Z,62.61
2023-03-18T13:35:57.579Z,62.11
2023-03-18T13:38:50.304Z,61.73
2023-03-18T13:41:35.854Z,62.33
2023-03-18T13:44:16.476Z,62.40
2023-03-18T13:47:05.875Z,62.68
2023-03-18T13:49:39.453Z,62.83
2023-03-18T13:52:30.344Z,63.36
2023-03-18T13:55:12.992Z,63.33
2023-03-18T13:57:54.126Z,63.44
2023-03-18T14:00:30.779Z,63.45
2023-03-18T14:03:39.341Z,63.71
2023-03-18T14:06:08.829Z,63.61
2023-03-18T14:08:44.613Z,63.40
2023-03-18T14:11:22.859Z,63.93
2023-03-18T14:14:05.987Z,63.91
2023-03-18T14:16:36.391Z,64.08
2023-03-18T14:19:32.796Z,64.45
2023-03-18T14:22:35.828Z,64.75
2023-03-18T14:25:14.670Z,65.10
2023-03-18T14:28:14.904Z,64.94
2023-03-18T14:31:12.910Z,65.13
2023-03-18T14:33:58.648Z,65.62
2023-03-18T14:37:15.191Z,66.67
2023-03-18T14:39:51.642Z,67.38
2023-03-18T14:42:36.140Z,67.79
2023-03-18T14:45:14.458Z,67.92
2023-03-18T14:47:56.728Z,67.74
2023-03-18T14:50:51.259Z,68.30
2023-03-18T14:53:35.559Z,68.28
2023-03-18T14:56:07.703Z,68.14
2023-03-18T14:58:37.587Z,68.33
2023-03-18T15:01:12.475Z,68.74
2023-03-18T15:03:50.021Z,68.85
2023-03-18T15:06:25.330Z,69.40
2023-03-18T15:09:10.229Z,69.73
2023-03-18T15:11:46.036Z,69.39
2023-03-18T15:14:30.316Z,69.38
2023-03-18T15:17:04.066Z,69.25
2023-03-18T15:19:33.596Z,69.43
2023-03-18T15:22:07.295Z,69.59
2023-03-18T15:24:37.788Z,69.01
2023-03-18T15:27:19.818Z,69.05
2023-03-18T15:29:57.618Z,69.04
2023-03-18T15:32:46.261Z,69.28
2023-03-18T15:35:29.143Z,69.27
2023-03-18T15:38:22.299Z,68.67
2023-03-18T15:40:56.054Z,68.78
2023-03-18T15:43:57.567Z,69.35
2023-03-18T15:46:31.305Z,69.53
2023-03-18T15:49:05.741Z,69.61
2023-03-18T15:51:48.015Z,69.49
2023-03-18T15:54:40.034Z,69.48
2023-03-18T15:57:26.050Z,69.46
2023-03-18T15:59:55.825Z,69.24
2023-03-18T16:02:27.746Z,69.22
2023-03-18T16:05:20.038Z,69.42
2023-03-18T16:07:50.441Z,69.40
2023-03-18T16:10:23.200Z,69.78
2023-03-18T16:14:17.506Z,69.82
2023-03-18T16:17:14.043Z,69.84
2023-03-18T16:19:46.175Z,69.73
2023-03-18T16:22:15.715Z,69.97
2023-03-18T16:24:45.318Z,69.88
2023-03-18T16:27:39.461Z,69.91
2023-03-18T16:30:31.075Z,69.90
2023-03-18T16:33:00.437Z,70.12
2023-03-18T16:35:34.783Z,69.98
2023-03-18T16:38:04.294Z,70.30
2023-03-18T16:40:36.116Z,70.68
2023-03-18T16:43:34.649Z,71.33
2023-03-18T16:46:06.745Z,71.36
2023-03-18T16:48:39.249Z,71.62
2023-03-18T16:51:08.641Z,72.40
2023-03-18T16:53:40.462Z,73.28
2023-03-18T16:56:36.291Z,73.94
2023-03-18T16:59:18.630Z,74.50
2023-03-18T17:01:50.516Z,75.16
2023-03-18T17:04:32.954Z,76.00
2023-03-18T17:07:06.265Z,76.57
2023-03-18T17:09:35.653Z,76.78
2023-03-18T17:12:07.589Z,77.40
2023-03-18T17:14:43.575Z,78.43
2023-03-18T17:17:39.556Z,79.44
2023-03-18T17:20:21.675Z,79.39
2023-03-18T17:22:51.265Z,79.40
2023-03-18T17:25:24.647Z,79.28
2023-03-18T17:27:59.481Z,79.07
2023-03-18T17:30:40.596Z,79.84
2023-03-18T17:33:25.252Z,80.32
2023-03-18T17:35:55.426Z,80.69
2023-03-18T17:38:25.072Z,80.88
2023-03-18T17:40:55.653Z,80.45
2023-03-18T17:43:36.677Z,80.47
2023-03-18T17:46:06.415Z,80.98
2023-03-18T17:48:38.355Z,81.39
2023-03-18T17:51:23.967Z,81.82
2023-03-18T17:54:05.959Z,81.74
2023-03-18T17:56:36.764Z,81.39
2023-03-18T17:59:15.349Z,81.02
2023-03-18T18:01:48.269Z,80.74
2023-03-18T18:04:21.910Z,80.35
2023-03-18T18:06:51.317Z,80.66
2023-03-18T18:09:21.684Z,80.45
2023-03-18T18:11:51.281Z,80.68
2023-03-18T18:14:31.682Z,80.30
2023-03-18T18:17:01.564Z,80.25
2023-03-18T18:19:30.971Z,80.01
2023-03-18T18:22:03.730Z,80.02
2023-03-18T18:24:33.775Z,79.60
2023-03-18T18:27:04.669Z,79.59
2023-03-18T18:29:35.960Z,79.44
2023-03-18T18:32:05.805Z,78.99
2023-03-18T18:34:36.036Z,78.80
2023-03-18T18:37:05.524Z,78.72
2023-03-18T18:39:34.997Z,78.78
2023-03-18T18:42:04.994Z,78.18
2023-03-18T18:44:34.461Z,78.16
2023-03-18T18:47:04.266Z,77.63
2023-03-18T18:49:35.152Z,77.90
2023-03-18T18:52:06.410Z,77.65
2023-03-18T18:54:35.900Z,77.90
2023-03-18T18:57:05.611Z,77.71
2023-03-18T18:59:35.182Z,77.64
2023-03-18T19:02:29.404Z,77.30
2023-03-18T19:05:00.175Z,77.38
2023-03-18T19:07:29.665Z,77.38
2023-03-18T19:09:59.345Z,76.87
2023-03-18T19:12:31.756Z,77.38
2023-03-18T19:15:01.218Z,76.71
2023-03-18T19:17:30.692Z,76.74
2023-03-18T19:20:00.210Z,76.74
2023-03-18T19:22:29.760Z,76.70
2023-03-18T19:24:59.097Z,76.59
2023-03-18T19:27:31.175Z,76.37
2023-03-18T19:30:05.871Z,76.99
2023-03-18T19:32:35.353Z,76.96
2023-03-18T19:35:05.796Z,76.88
2023-03-18T19:37:37.045Z,77.05
2023-03-18T19:40:30.209Z,77.07
2023-03-18T19:42:59.808Z,76.70
2023-03-18T19:45:29.248Z,76.86
2023-03-18T19:47:58.620Z,77.16
2023-03-18T19:50:28.839Z,77.61
2023-03-18T19:53:00.239Z,77.20
2023-03-18T19:55:29.793Z,76.96
2023-03-18T19:57:59.282Z,77.06
2023-03-18T20:00:30.126Z,76.99
2023-03-18T20:03:00.033Z,76.83
2023-03-18T20:05:30.802Z,76.56
2023-03-18T20:08:00.190Z,76.89
2023-03-18T20:10:30.190Z,77.07
2023-03-18T20:12:59.688Z,77.04
2023-03-18T20:15:29.620Z,77.11
2023-03-18T20:18:00.875Z,76.95
2023-03-18T20:20:33.800Z,77.03
2023-03-18T20:23:07.035Z,76.77
2023-03-18T20:25:42.325Z,76.70
2023-03-18T20:28:22.215Z,76.77
2023-03-18T20:30:56.184Z,76.69
2023-03-18T20:33:25.638Z,76.82
2023-03-18T20:35:55.249Z,76.42
2023-03-18T20:38:36.101Z,76.30
2023-03-18T20:41:12.637Z,76.35
2023-03-18T20:43:42.023Z,76.27
2023-03-18T20:46:16.890Z,76.21
2023-03-18T20:48:46.274Z,76.49
2023-03-18T20:51:24.339Z,76.26
2023-03-18T20:53:53.922Z,76.21
2023-03-18T20:56:23.410Z,76.23
2023-03-18T20:58:52.869Z,76.08
2023-03-18T21:01:23.243Z,76.11
2023-03-18T21:03:52.983Z,76.25
2023-03-18T21:06:22.472Z,76.39
2023-03-18T21:08:51.820Z,76.04
2023-03-18T21:11:32.762Z,76.30
2023-03-18T21:14:04.943Z,76.18
2023-03-18T21:16:37.720Z,76.44
2023-03-18T21:19:08.731Z,76.21
2023-03-18T21:21:39.728Z,76.26
2023-03-18T21:24:28.283Z,76.13
2023-03-18T21:27:04.763Z,76.44
2023-03-18T21:29:35.477Z,76.15
2023-03-18T21:32:05.292Z,76.39
2023-03-18T21:34:34.694Z,76.41
2023-03-18T21:37:04.204Z,75.97
2023-03-18T21:39:33.756Z,76.35
2023-03-18T21:42:03.162Z,76.27
2023-03-18T21:44:32.663Z,76.30
2023-03-18T21:47:02.414Z,76.26
2023-03-18T21:49:31.869Z,76.17
2023-03-18T21:52:01.564Z,76.06
2023-03-18T21:54:31.082Z,76.06
2023-03-18T21:57:00.469Z,76.09
2023-03-18T21:59:29.890Z,75.97
2023-03-18T22:01:59.398Z,75.88
2023-03-18T22:04:28.923Z,76.12
2023-03-18T22:06:58.295Z,76.02
2023-03-18T22:09:28.492Z,75.97
2023-03-18T22:11:58.087Z,76.10
2023-03-18T22:14:27.951Z,75.94
2023-03-18T22:16:57.508Z,76.11
2023-03-18T22:19:27.591Z,76.25
2023-03-18T22:21:56.990Z,76.17
2023-03-18T22:24:26.436Z,76.31
2023-03-18T22:26:55.783Z,76.11
2023-03-18T22:29:25.316Z,76.29
2023-03-18T22:31:54.744Z,75.92
2023-03-18T22:34:24.692Z,75.89
2023-03-18T22:36:54.177Z,75.90
2023-03-18T22:39:23.698Z,75.97
2023-03-18T22:41:53.177Z,76.12
2023-03-18T22:44:24.450Z,76.06
2023-03-18T22:46:53.890Z,75.92
2023-03-18T22:49:23.373Z,76.20
2023-03-18T22:51:52.932Z,75.88
2023-03-18T22:54:24.573Z,75.67
2023-03-18T22:56:53.988Z,75.84
2023-03-18T22:59:23.295Z,75.95
2023-03-18T23:01:52.789Z,75.94
2023-03-18T23:04:22.276Z,75.71
2023-03-18T23:06:52.569Z,75.87
2023-03-18T23:09:21.974Z,75.66
2023-03-18T23:11:51.471Z,75.85
2023-03-18T23:14:21.066Z,75.66
2023-03-18T23:16:50.798Z,75.69
2023-03-18T23:19:20.220Z,75.90
2023-03-18T23:21:49.675Z,76.00
2023-03-18T23:24:19.178Z,75.61
2023-03-18T23:26:50.839Z,75.89
2023-03-18T23:29:20.525Z,75.81
2023-03-18T23:31:50.054Z,75.91
2023-03-18T23:34:19.478Z,75.87
2023-03-18T23:36:48.922Z,75.99
2023-03-18T23:39:18.372Z,75.95
2023-03-18T23:41:47.857Z,75.82
2023-03-18T23:44:17.240Z,75.81
2023-03-18T23:46:46.984Z,75.78
2023-03-18T23:49:16.810Z,75.71
2023-03-18T23:51:46.357Z,75.62
2023-03-18T23:54:16.029Z,75.85
2023-03-18T23:56:45.383Z,76.07
2023-03-18T23:59:14.756Z,76.27
